Hovedside
METAR-TAF:

METAR-TAF

Lufthavner :

Fort-de-France, Martinique

breddegrad: 14-36N, lengdegrad: 061-00W, høyde over havet: 5 m

Gjeldene værobservasjon

Denne rapporten ble laget for 9 minutter siden, klokken 10:30 UTC
Vind 11 kt fra Øst
Temperatur 27°C
Luftfuktighet 79%
Trykk 1016 hPa
Sikt 10 km eller mer
Få skyer i en høyde av 2500 ft

METAR: TFFF 201030Z AUTO 10011KT 9999 FEW025 27/23 Q1016 TEMPO 4000 SHRA SCT018TCU

Tid: 06:39 (10:39 UTC)

Varsel

Denne rapporten ble laget for 6 timer og 39 minutter siden, klokken 04:00 UTC
Varsel gyldig fra 20. klokken 06 UTC til 21. klokken 06 UTC
Vind 14 kt fra Øst
Sikt 10 km eller mer
Spredte skyer i en høyde av 2000 ft
Spredte skyer i en høyde av 3500 ft
Sannsynlighet 30% :
Midlertidig
fra 20. klokken 06 UTC til 20. klokken 12 UTC
Sikt: 4000 m
Spredte skyer i en høyde av 1800 ft, Tårnskyer (cumulus).
regnbyger

TAF: TFFF 200400Z 2006/2106 09014KT 9999 SCT020 SCT035 PROB30 TEMPO 2006/2012 4000 SHRA SCT018TCU

Værobservasjoner og værvarsel for over 4000 flyplasser (METAR- og TAF-rapporter).

Tilgjengelige stasjoner er representert av de røde og gule prikkene på kartet.

Hold musepekeren over prikken for å se navnet på stasjonen.

Klikk så for å se værobservasjoner og -varsler.

For å forandre kartet kan du klikke på den grønne knappen med svart kryss for å zoome inn, på den grønne knappen med strek for å zoome ut, eller på de grønne pilene for å se tilstøtende kart.


METAR-TAF: